createdAt,value
2022-10-19T00:01:23.887Z,17.70
2022-10-19T00:03:55.065Z,17.70
2022-10-19T00:06:29.814Z,17.70
2022-10-19T00:09:05.279Z,17.70
2022-10-19T00:11:35.092Z,17.70
2022-10-19T00:14:03.680Z,17.70
2022-10-19T00:16:35.759Z,17.70
2022-10-19T00:19:08.364Z,17.70
2022-10-19T00:21:36.380Z,17.60
2022-10-19T00:24:03.647Z,17.60
2022-10-19T00:26:30.881Z,17.60
2022-10-19T00:28:58.650Z,17.50
2022-10-19T00:31:26.897Z,17.50
2022-10-19T00:33:56.150Z,17.40
2022-10-19T00:36:32.403Z,17.40
2022-10-19T00:39:00.495Z,17.40
2022-10-19T00:41:31.979Z,17.30
2022-10-19T00:44:02.049Z,17.30
2022-10-19T00:46:33.420Z,17.20
2022-10-19T00:49:10.641Z,17.20
2022-10-19T00:51:43.151Z,17.20
2022-10-19T00:54:10.701Z,17.10
2022-10-19T00:56:42.256Z,17.10
2022-10-19T00:59:10.941Z,17.10
2022-10-19T01:01:38.079Z,17.00
2022-10-19T01:04:05.666Z,16.90
2022-10-19T01:06:34.025Z,16.90
2022-10-19T01:09:01.015Z,16.80
2022-10-19T01:11:40.338Z,16.80
2022-10-19T01:14:32.253Z,16.70
2022-10-19T01:17:21.274Z,16.70
2022-10-19T01:20:26.876Z,16.70
2022-10-19T01:23:41.425Z,16.60
2022-10-19T01:26:39.974Z,16.60
2022-10-19T01:29:29.778Z,16.60
2022-10-19T01:32:31.552Z,16.60
2022-10-19T01:35:14.034Z,16.50
2022-10-19T01:37:51.147Z,16.50
2022-10-19T01:40:52.512Z,16.50
2022-10-19T01:43:32.134Z,16.50
2022-10-19T01:46:20.920Z,16.50
2022-10-19T01:49:00.546Z,16.50
2022-10-19T01:51:34.547Z,16.40
2022-10-19T01:54:06.274Z,16.50
2022-10-19T01:56:36.838Z,16.40
2022-10-19T01:59:08.490Z,16.40
2022-10-19T02:01:40.182Z,16.40
2022-10-19T02:04:07.901Z,16.40
2022-10-19T02:06:36.006Z,16.40
2022-10-19T02:09:03.156Z,16.40
2022-10-19T02:14:16.074Z,16.50
2022-10-19T02:17:01.173Z,16.50
2022-10-19T02:19:28.451Z,16.50
2022-10-19T02:21:57.814Z,16.50
2022-10-19T02:24:25.147Z,16.60
2022-10-19T02:26:53.697Z,16.60
2022-10-19T02:29:21.383Z,16.60
2022-10-19T02:31:48.994Z,16.70
2022-10-19T02:34:16.313Z,16.70
2022-10-19T02:36:43.438Z,16.70
2022-10-19T02:39:10.817Z,16.80
2022-10-19T02:41:45.194Z,16.80
2022-10-19T02:44:38.929Z,16.80
2022-10-19T02:47:19.383Z,16.80
2022-10-19T02:49:47.943Z,16.90
2022-10-19T02:52:15.807Z,16.90
2022-10-19T02:54:45.011Z,16.90
2022-10-19T02:57:22.686Z,16.90
2022-10-19T02:59:50.949Z,17.00
2022-10-19T03:02:20.439Z,17.00
2022-10-19T03:07:21.920Z,17.00
2022-10-19T03:09:49.953Z,17.00
2022-10-19T03:12:17.986Z,17.00
2022-10-19T03:14:45.194Z,17.00
2022-10-19T03:17:12.917Z,17.00
2022-10-19T03:19:40.090Z,17.00
2022-10-19T03:22:07.613Z,17.00
2022-10-19T03:24:34.864Z,17.10
2022-10-19T03:27:02.150Z,17.10
2022-10-19T03:29:29.294Z,17.10
2022-10-19T03:31:56.323Z,17.10
2022-10-19T03:34:23.493Z,17.10
2022-10-19T03:36:50.805Z,17.10
2022-10-19T03:39:18.563Z,17.10
2022-10-19T03:41:46.076Z,17.10
2022-10-19T03:44:13.657Z,17.10
2022-10-19T03:46:41.132Z,17.10
2022-10-19T03:49:09.362Z,17.10
2022-10-19T03:51:37.010Z,17.10
2022-10-19T03:54:08.335Z,17.10
2022-10-19T03:56:36.622Z,17.10
2022-10-19T03:59:06.241Z,17.10
2022-10-19T04:01:40.864Z,17.10
2022-10-19T04:04:15.912Z,17.10
2022-10-19T04:06:46.623Z,17.10
2022-10-19T04:09:17.409Z,17.10
2022-10-19T04:11:45.001Z,17.10
2022-10-19T04:14:26.862Z,17.10
2022-10-19T04:17:02.227Z,17.10
2022-10-19T04:19:29.461Z,17.10
2022-10-19T04:21:56.779Z,17.10
2022-10-19T04:24:24.335Z,17.00
2022-10-19T04:26:55.577Z,17.00
2022-10-19T04:29:29.479Z,17.00
2022-10-19T04:31:57.234Z,17.00
2022-10-19T04:34:24.572Z,17.00
2022-10-19T04:36:53.364Z,17.00
2022-10-19T04:39:20.443Z,17.00
2022-10-19T04:41:47.660Z,17.00
2022-10-19T04:44:15.595Z,17.00
2022-10-19T04:46:42.614Z,17.00
2022-10-19T04:49:09.830Z,17.00
2022-10-19T04:51:36.948Z,17.00
2022-10-19T04:54:05.089Z,17.00
2022-10-19T04:56:32.761Z,17.00
2022-10-19T04:59:01.197Z,17.00
2022-10-19T05:01:31.084Z,17.10
2022-10-19T05:04:01.076Z,17.10
2022-10-19T05:06:30.454Z,17.10
2022-10-19T05:08:57.999Z,17.10
2022-10-19T05:11:25.435Z,17.10
2022-10-19T05:13:52.494Z,17.10
2022-10-19T05:16:22.979Z,17.10
2022-10-19T05:18:58.948Z,17.20
2022-10-19T05:21:28.919Z,17.20
2022-10-19T05:23:57.504Z,17.20
2022-10-19T05:26:27.498Z,17.10
2022-10-19T05:29:02.671Z,17.10
2022-10-19T05:31:32.533Z,17.10
2022-10-19T05:34:00.884Z,17.10
2022-10-19T05:36:40.068Z,17.10
2022-10-19T05:39:17.128Z,17.10
2022-10-19T05:41:45.596Z,17.10
2022-10-19T05:44:20.388Z,17.10
2022-10-19T05:46:49.198Z,17.10
2022-10-19T05:49:20.059Z,17.10
2022-10-19T05:51:47.308Z,17.10
2022-10-19T05:54:15.483Z,17.10
2022-10-19T05:56:43.679Z,17.10
2022-10-19T05:59:17.794Z,17.10
2022-10-19T06:01:45.952Z,17.10
2022-10-19T06:04:14.982Z,17.10
2022-10-19T06:06:43.728Z,17.10
2022-10-19T06:09:11.286Z,17.10
2022-10-19T06:11:41.579Z,17.10
2022-10-19T06:14:15.358Z,17.10
2022-10-19T06:16:43.446Z,17.10
2022-10-19T06:19:10.656Z,17.10
2022-10-19T06:21:39.610Z,17.10
2022-10-19T06:24:11.257Z,17.10
2022-10-19T06:26:38.443Z,17.10
2022-10-19T06:29:06.015Z,17.10
2022-10-19T06:31:36.663Z,17.20
2022-10-19T06:34:04.474Z,17.20
2022-10-19T06:36:32.597Z,17.20
2022-10-19T06:39:01.874Z,17.20
2022-10-19T06:41:31.219Z,17.10
2022-10-19T06:43:58.788Z,17.20
2022-10-19T06:46:27.574Z,17.20
2022-10-19T06:48:57.707Z,17.20
2022-10-19T06:51:28.039Z,17.20
2022-10-19T06:53:57.254Z,17.20
2022-10-19T06:56:26.967Z,17.20
2022-10-19T06:58:55.468Z,17.30
2022-10-19T07:01:23.556Z,17.30
2022-10-19T07:03:52.736Z,17.30
2022-10-19T07:06:20.930Z,17.30
2022-10-19T07:08:48.532Z,17.30
2022-10-19T07:11:19.130Z,17.30
2022-10-19T07:13:46.480Z,17.40
2022-10-19T07:16:20.597Z,17.40
2022-10-19T07:18:53.521Z,17.40
2022-10-19T07:21:22.338Z,17.40
2022-10-19T07:23:49.645Z,17.50
2022-10-19T07:26:26.657Z,17.40
2022-10-19T07:28:56.563Z,17.50
2022-10-19T07:31:26.741Z,17.50
2022-10-19T07:34:00.568Z,17.50
2022-10-19T07:36:30.448Z,17.60
2022-10-19T07:38:58.353Z,17.60
2022-10-19T07:41:27.081Z,17.60
2022-10-19T07:43:55.026Z,17.70
2022-10-19T07:46:26.347Z,17.80
2022-10-19T07:48:53.824Z,17.80
2022-10-19T07:51:22.246Z,17.90
2022-10-19T07:53:49.864Z,18.00
2022-10-19T07:56:23.744Z,18.00
2022-10-19T07:58:52.848Z,18.00
2022-10-19T08:01:26.374Z,18.10
2022-10-19T08:06:43.103Z,18.20
2022-10-19T08:09:15.669Z,18.20
2022-10-19T08:11:50.120Z,18.30
2022-10-19T08:14:17.349Z,18.30
2022-10-19T08:16:44.705Z,18.40
2022-10-19T08:19:15.430Z,18.40
2022-10-19T08:21:46.344Z,18.50
2022-10-19T08:24:16.624Z,18.50
2022-10-19T08:26:44.236Z,18.60
2022-10-19T08:29:15.938Z,18.60
2022-10-19T08:31:45.719Z,18.70
2022-10-19T08:34:13.941Z,18.70
2022-10-19T08:39:13.949Z,18.90
2022-10-19T08:41:41.253Z,18.90
2022-10-19T08:44:34.404Z,19.00
2022-10-19T08:47:51.595Z,19.10
2022-10-19T08:50:32.495Z,19.20
2022-10-19T08:53:07.879Z,19.20
2022-10-19T08:56:18.048Z,19.30
2022-10-19T08:59:01.582Z,19.40
2022-10-19T09:01:40.584Z,19.40
2022-10-19T09:04:38.007Z,19.50
2022-10-19T09:07:24.895Z,19.50
2022-10-19T09:09:56.833Z,19.60
2022-10-19T09:12:40.847Z,19.60
2022-10-19T09:15:25.320Z,19.60
2022-10-19T09:17:52.393Z,19.70
2022-10-19T09:20:35.946Z,19.70
2022-10-19T09:23:26.999Z,19.70
2022-10-19T09:25:55.179Z,19.70
2022-10-19T09:29:07.148Z,19.70
2022-10-19T09:31:40.814Z,19.70
2022-10-19T09:34:41.890Z,19.70
2022-10-19T09:37:09.106Z,19.70
2022-10-19T09:39:36.285Z,19.70
2022-10-19T09:42:24.141Z,19.70
2022-10-19T09:44:54.826Z,19.70
2022-10-19T09:47:41.205Z,19.70
2022-10-19T09:50:19.350Z,19.70
2022-10-19T09:52:58.343Z,19.70
2022-10-19T09:55:39.994Z,19.70
2022-10-19T09:58:32.102Z,19.70
2022-10-19T10:01:03.312Z,19.70
2022-10-19T10:03:39.645Z,19.70
2022-10-19T10:06:15.206Z,19.80
2022-10-19T10:08:49.872Z,19.80
2022-10-19T10:11:26.017Z,19.80
2022-10-19T10:13:56.188Z,19.80
2022-10-19T10:16:33.750Z,19.90
2022-10-19T10:19:06.730Z,19.90
2022-10-19T10:21:47.424Z,20.00
2022-10-19T10:24:14.405Z,20.00
2022-10-19T10:26:54.759Z,20.00
2022-10-19T10:29:34.590Z,20.10
2022-10-19T10:32:19.834Z,20.10
2022-10-19T10:35:07.249Z,20.20
2022-10-19T10:37:40.741Z,20.20
2022-10-19T10:40:32.324Z,20.30
2022-10-19T10:43:13.937Z,20.40
2022-10-19T10:45:49.110Z,20.50
2022-10-19T10:48:31.058Z,20.60
2022-10-19T10:51:01.022Z,20.60
2022-10-19T10:53:46.222Z,20.80
2022-10-19T10:56:41.170Z,20.90
2022-10-19T10:59:19.949Z,21.10
2022-10-19T11:02:20.602Z,21.20
2022-10-19T11:04:56.044Z,21.40
2022-10-19T11:07:29.443Z,21.50
2022-10-19T11:10:09.928Z,21.70
2022-10-19T11:12:42.982Z,21.80
2022-10-19T11:15:22.649Z,22.00
2022-10-19T11:18:13.789Z,22.20
2022-10-19T11:21:00.904Z,22.30
2022-10-19T11:24:01.746Z,22.50
2022-10-19T11:26:31.597Z,22.70
2022-10-19T11:29:20.554Z,22.90
2022-10-19T11:31:55.642Z,23.00
2022-10-19T11:35:00.874Z,23.20
2022-10-19T11:38:19.832Z,23.30
2022-10-19T11:41:17.289Z,23.40
2022-10-19T11:44:24.721Z,23.50
2022-10-19T11:47:21.557Z,23.50
2022-10-19T11:50:33.937Z,23.60
2022-10-19T11:53:34.989Z,23.60
2022-10-19T11:56:17.678Z,23.70
2022-10-19T11:59:18.192Z,23.80
2022-10-19T12:01:54.301Z,23.90
2022-10-19T12:04:56.435Z,24.00
2022-10-19T12:07:45.206Z,24.20
2022-10-19T12:11:03.292Z,24.30
2022-10-19T12:13:53.139Z,24.40
2022-10-19T12:16:22.135Z,24.50
2022-10-19T12:18:54.610Z,24.60
2022-10-19T12:21:38.110Z,24.60
2022-10-19T12:24:16.628Z,24.70
2022-10-19T12:26:46.176Z,24.70
2022-10-19T12:29:23.165Z,24.80
2022-10-19T12:31:51.594Z,24.80
2022-10-19T12:35:05.539Z,24.80
2022-10-19T12:38:11.444Z,24.90
2022-10-19T12:41:31.802Z,24.80
2022-10-19T12:44:35.302Z,24.80
2022-10-19T12:47:23.967Z,24.70
2022-10-19T12:49:58.672Z,24.70
2022-10-19T12:52:58.394Z,24.60
2022-10-19T12:55:36.979Z,24.50
2022-10-19T12:58:22.016Z,24.40
2022-10-19T13:01:04.570Z,24.40
2022-10-19T13:03:40.551Z,24.30
2022-10-19T13:06:25.079Z,24.20
2022-10-19T13:09:00.342Z,24.20
2022-10-19T13:11:27.843Z,24.20
2022-10-19T13:13:59.075Z,24.10
2022-10-19T13:17:07.630Z,24.10
2022-10-19T13:19:35.109Z,24.10
2022-10-19T13:22:02.286Z,24.00
2022-10-19T13:24:31.456Z,24.00
2022-10-19T13:27:04.384Z,24.00
2022-10-19T13:29:44.447Z,24.00
2022-10-19T13:32:44.806Z,24.00
2022-10-19T13:35:31.697Z,24.00
2022-10-19T13:38:12.357Z,24.00
2022-10-19T13:40:51.418Z,24.00
2022-10-19T13:43:22.479Z,24.00
2022-10-19T13:46:09.180Z,24.00
2022-10-19T13:49:32.600Z,24.00
2022-10-19T13:52:34.048Z,24.00
2022-10-19T13:56:12.407Z,24.00
2022-10-19T13:58:54.387Z,24.00
2022-10-19T14:01:30.466Z,24.00
2022-10-19T14:04:53.688Z,24.00
2022-10-19T14:07:33.508Z,24.00
2022-10-19T14:10:20.997Z,24.10
2022-10-19T14:12:50.054Z,24.20
2022-10-19T14:15:29.907Z,24.40
2022-10-19T14:17:59.524Z,24.60
2022-10-19T14:20:37.082Z,24.90
2022-10-19T14:23:35.766Z,25.20
2022-10-19T14:26:12.759Z,25.60
2022-10-19T14:28:41.281Z,25.80
2022-10-19T14:31:17.627Z,25.90
2022-10-19T14:33:48.295Z,26.00
2022-10-19T14:36:20.309Z,26.10
2022-10-19T14:38:50.791Z,26.30
2022-10-19T14:41:28.866Z,26.60
2022-10-19T14:44:00.925Z,26.90
2022-10-19T14:46:33.966Z,27.40
2022-10-19T14:49:05.328Z,27.80
2022-10-19T14:51:40.375Z,28.20
2022-10-19T14:54:32.570Z,28.50
2022-10-19T14:57:06.618Z,28.60
2022-10-19T14:59:37.961Z,28.70
2022-10-19T15:02:24.682Z,28.60
2022-10-19T15:04:55.155Z,28.40
2022-10-19T15:07:41.318Z,28.10
2022-10-19T15:10:39.567Z,27.90
2022-10-19T15:13:10.020Z,27.90
2022-10-19T15:15:37.473Z,28.00
2022-10-19T15:18:06.519Z,28.10
2022-10-19T15:20:54.874Z,28.40
2022-10-19T15:23:40.293Z,28.70
2022-10-19T15:26:24.956Z,29.00
2022-10-19T15:28:55.996Z,29.30
2022-10-19T15:31:29.269Z,29.50
2022-10-19T15:34:00.660Z,29.60
2022-10-19T15:36:31.099Z,29.70
2022-10-19T15:39:06.239Z,29.90
2022-10-19T15:41:45.683Z,29.90
2022-10-19T15:44:43.601Z,29.90
2022-10-19T15:47:16.849Z,29.80
2022-10-19T15:49:44.487Z,29.50
2022-10-19T15:52:24.548Z,29.10
2022-10-19T15:54:56.441Z,28.70
2022-10-19T15:57:31.033Z,28.20
2022-10-19T16:00:01.701Z,27.80
2022-10-19T16:02:28.761Z,27.30
2022-10-19T16:04:57.124Z,26.80
2022-10-19T16:07:32.357Z,26.30
2022-10-19T16:10:00.094Z,25.90
2022-10-19T16:12:27.942Z,25.40
2022-10-19T16:14:55.435Z,25.00
2022-10-19T16:17:23.000Z,24.60
2022-10-19T16:19:50.215Z,24.30
2022-10-19T16:22:17.698Z,23.90
2022-10-19T16:24:44.925Z,23.60
2022-10-19T16:27:15.330Z,23.30
2022-10-19T16:29:44.343Z,23.00
2022-10-19T16:32:11.512Z,22.70
2022-10-19T16:34:38.987Z,22.50
2022-10-19T16:37:07.380Z,22.20
2022-10-19T16:39:35.376Z,22.00
2022-10-19T16:42:02.464Z,21.70
2022-10-19T16:44:29.738Z,21.50
2022-10-19T16:46:57.748Z,21.30
2022-10-19T16:49:25.045Z,21.10
2022-10-19T16:51:54.851Z,20.90
2022-10-19T16:54:26.806Z,20.70
2022-10-19T16:56:55.748Z,20.50
2022-10-19T16:59:22.950Z,20.40
2022-10-19T17:01:50.351Z,20.20
2022-10-19T17:04:18.134Z,20.10
2022-10-19T17:06:45.657Z,19.90
2022-10-19T17:12:00.081Z,19.60
2022-10-19T17:14:27.219Z,19.50
2022-10-19T17:16:54.383Z,19.40
2022-10-19T17:19:21.590Z,19.20
2022-10-19T17:21:49.531Z,19.10
2022-10-19T17:24:21.944Z,19.00
2022-10-19T17:26:52.324Z,18.90
2022-10-19T17:29:21.598Z,18.80
2022-10-19T17:31:49.794Z,18.70
2022-10-19T17:34:17.937Z,18.50
2022-10-19T17:36:46.580Z,18.40
2022-10-19T17:39:19.473Z,18.30
2022-10-19T17:41:49.399Z,18.20
2022-10-19T17:44:18.042Z,18.10
2022-10-19T17:46:45.400Z,18.00
2022-10-19T17:49:13.352Z,17.90
2022-10-19T17:51:40.963Z,17.80
2022-10-19T17:54:12.557Z,17.80
2022-10-19T17:56:40.876Z,17.70
2022-10-19T17:59:09.262Z,17.60
2022-10-19T18:01:37.588Z,17.50
2022-10-19T18:04:05.318Z,17.40
2022-10-19T18:06:36.387Z,17.30
2022-10-19T18:09:07.263Z,17.20
2022-10-19T18:11:39.629Z,17.20
2022-10-19T18:14:09.650Z,17.10
2022-10-19T18:16:46.421Z,17.00
2022-10-19T18:19:16.007Z,16.90
2022-10-19T18:21:46.077Z,16.80
2022-10-19T18:24:19.433Z,16.80
2022-10-19T18:26:48.061Z,16.70
2022-10-19T18:29:22.343Z,16.60
2022-10-19T18:31:53.480Z,16.50
2022-10-19T18:34:24.594Z,16.40
2022-10-19T18:36:52.507Z,16.40
2022-10-19T18:39:19.989Z,16.30
2022-10-19T18:41:51.932Z,16.20
2022-10-19T18:44:23.625Z,16.10
2022-10-19T18:46:54.753Z,16.10
2022-10-19T18:49:21.770Z,16.10
2022-10-19T18:51:54.281Z,16.00
2022-10-19T18:54:23.233Z,15.90
2022-10-19T18:56:50.433Z,15.80
2022-10-19T18:59:18.773Z,15.80
2022-10-19T19:01:46.042Z,15.70
2022-10-19T19:04:13.276Z,15.70
2022-10-19T19:06:40.691Z,15.60
2022-10-19T19:09:10.677Z,15.60
2022-10-19T19:11:40.980Z,15.60
2022-10-19T19:14:16.576Z,15.50
2022-10-19T19:16:45.419Z,15.50
2022-10-19T19:19:15.681Z,15.40
2022-10-19T19:21:44.656Z,15.40
2022-10-19T19:24:19.764Z,15.30
2022-10-19T19:26:54.103Z,15.30
2022-10-19T19:29:22.347Z,15.30
2022-10-19T19:31:49.722Z,15.20
2022-10-19T19:34:17.995Z,15.20
2022-10-19T19:36:48.235Z,15.10
2022-10-19T19:39:20.220Z,15.10
2022-10-19T19:41:49.453Z,15.10
2022-10-19T19:44:17.877Z,15.10
2022-10-19T19:46:45.212Z,15.00
2022-10-19T19:49:12.660Z,15.00
2022-10-19T19:51:39.910Z,15.00
2022-10-19T19:54:07.143Z,15.00
2022-10-19T19:56:34.468Z,15.00
2022-10-19T19:59:05.080Z,15.00
2022-10-19T20:01:33.030Z,15.00
2022-10-19T20:06:36.500Z,15.00
2022-10-19T20:09:05.351Z,15.00
2022-10-19T20:11:32.876Z,14.90
2022-10-19T20:14:00.365Z,14.90
2022-10-19T20:16:33.231Z,14.90
2022-10-19T20:19:09.007Z,14.90
2022-10-19T20:21:36.699Z,14.90
2022-10-19T20:24:04.114Z,14.90
2022-10-19T20:26:31.556Z,14.80
2022-10-19T20:29:01.067Z,14.80
2022-10-19T20:34:00.706Z,14.80
2022-10-19T20:36:27.942Z,14.80
2022-10-19T20:38:57.377Z,14.80
2022-10-19T20:41:27.957Z,14.80
2022-10-19T20:43:56.319Z,14.80
2022-10-19T20:46:28.635Z,14.80
2022-10-19T20:48:59.700Z,14.70
2022-10-19T20:51:33.733Z,14.70
2022-10-19T20:54:03.763Z,14.70
2022-10-19T20:56:35.314Z,14.70
2022-10-19T20:59:10.654Z,14.70
2022-10-19T21:01:40.260Z,14.70
2022-10-19T21:04:10.668Z,14.60
2022-10-19T21:06:41.877Z,14.60
2022-10-19T21:09:09.970Z,14.60
2022-10-19T21:11:41.081Z,14.60
2022-10-19T21:14:15.296Z,14.60
2022-10-19T21:16:43.088Z,14.60
2022-10-19T21:19:19.803Z,14.60
2022-10-19T21:21:55.506Z,14.50
2022-10-19T21:24:26.141Z,14.50
2022-10-19T21:26:53.672Z,14.50
2022-10-19T21:29:21.369Z,14.40
2022-10-19T21:31:52.257Z,14.40
2022-10-19T21:34:25.821Z,14.40
2022-10-19T21:36:53.471Z,14.40
2022-10-19T21:39:21.491Z,14.40
2022-10-19T21:41:49.772Z,14.30
2022-10-19T21:44:18.235Z,14.30
2022-10-19T21:46:47.952Z,14.30
2022-10-19T21:49:15.754Z,14.30
2022-10-19T21:51:53.686Z,14.30
2022-10-19T21:54:27.650Z,14.20
2022-10-19T21:56:56.798Z,14.20
2022-10-19T21:59:24.974Z,14.20
2022-10-19T22:01:54.663Z,14.20
2022-10-19T22:04:22.247Z,14.20
2022-10-19T22:06:49.514Z,14.20
2022-10-19T22:09:20.451Z,14.10
2022-10-19T22:11:48.566Z,14.10
2022-10-19T22:14:16.874Z,14.10
2022-10-19T22:16:44.404Z,14.10
2022-10-19T22:19:12.642Z,14.10
2022-10-19T22:21:40.540Z,14.00
2022-10-19T22:24:13.093Z,14.00
2022-10-19T22:26:45.185Z,14.00
2022-10-19T22:29:12.613Z,14.00
2022-10-19T22:31:40.373Z,14.00
2022-10-19T22:34:12.435Z,14.00
2022-10-19T22:36:39.724Z,14.00
2022-10-19T22:39:07.716Z,13.90
2022-10-19T22:41:34.945Z,14.00
2022-10-19T22:44:02.099Z,13.90
2022-10-19T22:46:29.382Z,13.90
2022-10-19T22:48:56.555Z,13.90
2022-10-19T22:51:23.766Z,13.90
2022-10-19T22:53:51.007Z,13.90
2022-10-19T22:56:18.044Z,13.90
2022-10-19T22:58:45.215Z,13.90
2022-10-19T23:01:15.030Z,13.90
2022-10-19T23:03:42.837Z,13.90
2022-10-19T23:06:12.900Z,13.80
2022-10-19T23:08:40.204Z,13.80
2022-10-19T23:11:07.508Z,13.80
2022-10-19T23:13:34.564Z,13.80
2022-10-19T23:16:02.319Z,13.80
2022-10-19T23:18:37.366Z,13.80
2022-10-19T23:21:08.511Z,13.80
2022-10-19T23:23:37.090Z,13.80
2022-10-19T23:26:17.235Z,13.70
2022-10-19T23:28:47.553Z,13.70
2022-10-19T23:31:20.233Z,13.70
2022-10-19T23:33:47.608Z,13.70
2022-10-19T23:36:18.696Z,13.60
2022-10-19T23:38:47.226Z,13.60
2022-10-19T23:41:15.760Z,13.60
2022-10-19T23:43:43.339Z,13.60
2022-10-19T23:46:10.920Z,13.50
2022-10-19T23:48:38.230Z,13.50
2022-10-19T23:51:12.365Z,13.50
2022-10-19T23:53:42.110Z,13.40
2022-10-19T23:56:17.428Z,13.40
2022-10-19T23:58:45.697Z,13.40
